Time;durP1;ratioP1;P1;durP2;ratioP2;P2;SDS_P1;SDS_P2;PMS_P1;PMS_P2;Temp;Humidity;BMP_temperature;BMP_pressure;BME280_temperature;BME280_humidity;BME280_pressure;Samples;Min_cycle;Max_cycle;Signal;HPM_P1;HPM_P2
2021/01/19 00:02:17;;;;;;;9.82;9.02;;;-3.20;75.30;;;;;;5156849;28;20402;-75
2021/01/19 00:04:48;;;;;;;8.90;8.20;;;-3.10;75.50;;;;;;5174536;28;20045;-76
2021/01/19 00:07:20;;;;;;;9.32;8.57;;;-3.20;75.00;;;;;;5156906;28;20050;-75
2021/01/19 00:09:51;;;;;;;9.73;8.93;;;-3.20;75.00;;;;;;5172552;28;20103;-74
2021/01/19 00:12:23;;;;;;;9.35;8.65;;;-3.20;74.60;;;;;;5170897;28;20124;-74
2021/01/19 00:14:54;;;;;;;8.95;8.25;;;-3.20;73.90;;;;;;5165233;28;20521;-77
2021/01/19 00:17:25;;;;;;;9.32;8.52;;;-3.20;71.50;;;;;;5172978;28;20070;-75
2021/01/19 00:19:57;;;;;;;9.27;8.50;;;-3.30;72.70;;;;;;5173230;28;20382;-77
2021/01/19 00:22:29;;;;;;;9.48;8.75;;;-3.40;72.10;;;;;;5171540;28;20046;-75
2021/01/19 00:25:01;;;;;;;8.95;8.20;;;-3.50;72.70;;;;;;5174296;28;20045;-75
2021/01/19 00:27:33;;;;;;;8.90;8.10;;;-3.50;72.70;;;;;;5163387;28;20121;-76
2021/01/19 00:30:05;;;;;;;9.48;8.77;;;-3.60;73.60;;;;;;5184251;28;20100;-75
2021/01/19 00:32:36;;;;;;;10.00;9.20;;;-3.70;74.20;;;;;;5172929;28;20410;-77
2021/01/19 00:35:08;;;;;;;9.43;8.63;;;-3.80;75.40;;;;;;5167938;28;20038;-76
2021/01/19 00:37:40;;;;;;;9.00;8.25;;;-3.90;75.40;;;;;;5175599;28;20071;-75
2021/01/19 00:40:12;;;;;;;10.27;9.40;;;-3.90;75.40;;;;;;5172746;28;20096;-75
2021/01/19 00:42:43;;;;;;;9.20;8.50;;;-3.90;75.20;;;;;;5172109;28;20038;-74
2021/01/19 00:45:15;;;;;;;9.07;8.38;;;-4.00;75.50;;;;;;5156151;28;20052;-76
2021/01/19 00:47:47;;;;;;;9.30;8.60;;;-3.90;75.90;;;;;;5174148;28;20112;-75
2021/01/19 00:50:18;;;;;;;9.35;8.55;;;-4.00;76.10;;;;;;5172802;28;20168;-77
2021/01/19 00:52:50;;;;;;;9.40;8.60;;;-4.10;76.40;;;;;;5174973;28;20109;-76
2021/01/19 00:55:22;;;;;;;9.02;8.32;;;-4.10;76.00;;;;;;5169711;28;20038;-76
2021/01/19 00:57:56;;;;;;;9.30;8.50;;;-4.30;76.70;;;;;;5133563;28;20057;-76
2021/01/19 01:00:30;;;;;;;9.07;8.38;;;-4.30;76.40;;;;;;5170913;28;20537;-76
2021/01/19 01:03:02;;;;;;;9.23;8.52;;;-4.30;76.00;;;;;;5172314;28;20042;-75
2021/01/19 01:05:33;;;;;;;9.27;8.48;;;-4.40;75.80;;;;;;5172476;28;20050;-77
2021/01/19 01:08:05;;;;;;;8.93;8.02;;;-4.40;76.20;;;;;;5172710;28;20104;-76
2021/01/19 01:10:37;;;;;;;9.32;8.52;;;-4.40;76.00;;;;;;5169548;28;20054;-75
2021/01/19 01:13:08;;;;;;;9.00;8.20;;;-4.50;75.70;;;;;;5171742;28;20095;-75
2021/01/19 01:15:40;;;;;;;8.90;8.20;;;-4.40;76.90;;;;;;5180322;28;20110;-76
2021/01/19 01:18:13;;;;;;;8.82;8.13;;;-4.40;76.20;;;;;;5167499;28;20038;-75
2021/01/19 01:20:44;;;;;;;9.40;8.50;;;-4.40;76.00;;;;;;5163980;28;20034;-76
2021/01/19 01:23:16;;;;;;;8.95;8.25;;;-4.40;75.60;;;;;;5168368;28;20046;-75
2021/01/19 01:25:47;;;;;;;9.10;8.40;;;-4.30;75.40;;;;;;5169772;28;20050;-74
2021/01/19 01:28:18;;;;;;;9.23;8.43;;;-4.40;75.00;;;;;;5170172;28;20042;-76
2021/01/19 01:30:50;;;;;;;8.90;8.20;;;-4.40;74.60;;;;;;5172276;28;20046;-74
2021/01/19 01:33:21;;;;;;;8.98;8.27;;;-4.50;75.00;;;;;;5174655;28;20046;-74
2021/01/19 01:35:53;;;;;;;8.85;8.15;;;-4.50;75.50;;;;;;5171661;28;20843;-74
2021/01/19 01:38:24;;;;;;;8.90;8.20;;;-4.60;75.20;;;;;;5172755;28;20129;-75
2021/01/19 01:40:56;;;;;;;8.70;8.00;;;-4.70;76.60;;;;;;5174088;28;20050;-76
2021/01/19 01:43:27;;;;;;;9.10;8.40;;;-4.70;75.90;;;;;;5174231;28;20042;-76
2021/01/19 01:45:59;;;;;;;8.65;7.95;;;-4.70;76.40;;;;;;5174967;28;20045;-75
2021/01/19 01:48:31;;;;;;;8.43;7.72;;;-4.70;76.30;;;;;;5173121;28;20038;-77
2021/01/19 01:51:02;;;;;;;8.60;7.90;;;-4.70;77.10;;;;;;5173891;28;20050;-74
2021/01/19 01:53:39;;;;;;;8.60;7.90;;;-4.60;77.20;;;;;;5175039;28;20042;-75
2021/01/19 01:56:11;;;;;;;9.32;7.72;;;-4.70;77.20;;;;;;5190648;28;20074;-76
2021/01/19 01:58:43;;;;;;;8.40;7.70;;;-4.80;76.40;;;;;;5174647;28;20853;-77
2021/01/19 02:01:15;;;;;;;8.88;8.18;;;-4.80;76.50;;;;;;5173623;28;20041;-75
2021/01/19 02:03:47;;;;;;;8.00;7.35;;;-4.80;76.20;;;;;;5174817;28;20034;-77
2021/01/19 02:06:18;;;;;;;8.15;7.55;;;-4.90;77.70;;;;;;5173011;28;20045;-76
2021/01/19 02:09:11;;;;;;;8.65;7.95;;;-4.90;78.10;;;;;;5168758;28;20049;-74
2021/01/19 02:11:54;;;;;;;8.60;7.90;;;-4.90;77.30;;;;;;5173705;28;20057;-75
2021/01/19 02:14:35;;;;;;;8.57;7.88;;;-4.90;77.60;;;;;;5173437;28;20042;-76
2021/01/19 02:17:19;;;;;;;8.80;8.10;;;-4.90;77.60;;;;;;5173386;28;20070;-76
2021/01/19 02:20:21;;;;;;;8.60;7.90;;;-4.90;76.70;;;;;;5173347;28;20079;-75
2021/01/19 02:23:14;;;;;;;8.65;7.85;;;-4.90;77.10;;;;;;5174284;28;20060;-73
2021/01/19 02:26:07;;;;;;;8.40;7.68;;;-4.90;75.10;;;;;;5174065;28;20049;-74
2021/01/19 02:28:44;;;;;;;7.90;7.30;;;-5.00;75.00;;;;;;5174110;28;20051;-72
2021/01/19 02:32:01;;;;;;;8.40;7.70;;;-5.00;75.40;;;;;;5137212;28;20042;-75
2021/01/19 02:35:12;;;;;;;8.55;7.85;;;-5.00;74.10;;;;;;5166668;28;20734;-74
2021/01/19 02:38:07;;;;;;;8.07;7.25;;;-4.90;74.00;;;;;;5173420;28;20700;-72
2021/01/19 02:40:39;;;;;;;7.75;7.10;;;-4.90;73.40;;;;;;5164720;28;20042;-72
2021/01/19 02:43:20;;;;;;;7.45;6.85;;;-5.00;72.30;;;;;;5172047;28;20038;-73
2021/01/19 02:45:55;;;;;;;7.70;7.10;;;-5.10;72.50;;;;;;5173634;28;20108;-74
2021/01/19 02:48:26;;;;;;;7.35;6.75;;;-5.10;72.70;;;;;;5174728;28;20678;-73
2021/01/19 02:50:58;;;;;;;7.20;6.60;;;-5.10;73.10;;;;;;5176657;28;20084;-73
2021/01/19 02:53:30;;;;;;;7.25;6.65;;;-5.10;72.70;;;;;;5171402;28;20046;-74
2021/01/19 02:56:03;;;;;;;7.18;6.57;;;-5.20;72.30;;;;;;5164937;28;20057;-76
2021/01/19 02:58:53;;;;;;;7.28;6.68;;;-5.20;72.30;;;;;;5173168;28;20104;-76
2021/01/19 03:01:32;;;;;;;7.90;7.20;;;-5.30;71.10;;;;;;5164626;28;20701;-75
2021/01/19 03:04:04;;;;;;;7.75;7.05;;;-5.30;71.50;;;;;;5175563;28;20046;-75
2021/01/19 03:06:36;;;;;;;7.63;6.93;;;-5.40;71.50;;;;;;5172610;28;20062;-73
2021/01/19 03:09:09;;;;;;;6.80;6.20;;;-5.50;72.10;;;;;;5173323;28;20061;-73
2021/01/19 03:11:41;;;;;;;7.00;6.40;;;-5.50;72.20;;;;;;5172302;28;20096;-74
2021/01/19 03:14:13;;;;;;;7.32;6.72;;;-5.50;71.60;;;;;;5176140;28;20050;-74
2021/01/19 03:16:45;;;;;;;7.13;6.53;;;-5.50;71.70;;;;;;5173837;28;20053;-74
2021/01/19 03:19:19;;;;;;;7.18;6.57;;;-5.50;71.60;;;;;;5173209;28;21021;-74
2021/01/19 03:21:50;;;;;;;7.35;6.40;;;-5.60;71.40;;;;;;5173643;28;20034;-75
2021/01/19 03:24:22;;;;;;;6.70;6.10;;;-5.60;72.00;;;;;;5174725;28;20042;-76
2021/01/19 03:26:53;;;;;;;6.97;6.28;;;-5.70;72.00;;;;;;5174452;28;20493;-77
2021/01/19 03:33:38;;;;;;;6.10;5.60;;;-5.90;71.80;;;;;;5184788;28;20041;-74
2021/01/19 03:36:10;;;;;;;6.40;5.80;;;-5.90;73.10;;;;;;5171885;28;20057;-75
2021/01/19 03:38:41;;;;;;;6.40;5.80;;;-5.90;72.50;;;;;;5176036;28;20046;-75
2021/01/19 03:41:13;;;;;;;6.50;5.90;;;-5.90;72.50;;;;;;5156212;28;20108;-74
2021/01/19 03:43:45;;;;;;;6.50;5.90;;;-6.00;72.00;;;;;;5172052;28;20038;-75
2021/01/19 03:46:17;;;;;;;6.13;5.57;;;-6.00;72.10;;;;;;5173758;28;20108;-75
2021/01/19 03:48:48;;;;;;;6.70;6.10;;;-6.00;71.50;;;;;;5172264;28;20097;-75
2021/01/19 03:51:20;;;;;;;6.28;5.68;;;-6.10;72.60;;;;;;5175117;28;20792;-74
2021/01/19 03:53:55;;;;;;;6.82;6.03;;;-6.20;74.10;;;;;;5171119;28;20069;-75
2021/01/19 03:56:26;;;;;;;6.60;6.00;;;-6.30;75.00;;;;;;5170671;28;20058;-75
2021/01/19 03:58:57;;;;;;;6.60;6.00;;;-6.20;75.50;;;;;;5171574;28;20033;-76
2021/01/19 04:01:29;;;;;;;6.20;5.60;;;-6.20;74.30;;;;;;5167595;28;20410;-74
2021/01/19 04:04:00;;;;;;;6.50;5.90;;;-6.20;74.10;;;;;;5177370;28;20049;-75
2021/01/19 04:06:32;;;;;;;6.20;5.60;;;-6.20;74.40;;;;;;5169620;28;20038;-75
2021/01/19 04:09:04;;;;;;;6.78;6.18;;;-6.30;74.70;;;;;;5173884;28;20525;-76
2021/01/19 04:11:35;;;;;;;6.63;6.03;;;-6.30;75.70;;;;;;5169250;28;20079;-75
2021/01/19 04:14:07;;;;;;;6.88;6.28;;;-6.30;76.60;;;;;;5172185;28;20060;-74
2021/01/19 04:16:38;;;;;;;7.20;6.60;;;-6.30;76.20;;;;;;5170347;28;20927;-75
2021/01/19 04:19:10;;;;;;;6.90;6.30;;;-6.30;77.00;;;;;;5171233;28;20452;-74
2021/01/19 04:21:41;;;;;;;7.28;6.68;;;-6.30;78.10;;;;;;5170912;28;20050;-76
2021/01/19 04:24:13;;;;;;;7.13;6.53;;;-6.30;76.90;;;;;;5171321;28;20468;-76
2021/01/19 04:26:44;;;;;;;6.85;6.25;;;-6.30;76.40;;;;;;5172686;28;20120;-74
2021/01/19 04:29:16;;;;;;;7.28;6.57;;;-6.20;77.00;;;;;;5169573;28;20046;-76
2021/01/19 04:31:47;;;;;;;7.20;6.60;;;-6.20;76.80;;;;;;5171714;28;20070;-75
2021/01/19 04:34:19;;;;;;;7.18;6.57;;;-6.30;75.50;;;;;;5174366;28;20104;-76
2021/01/19 04:36:50;;;;;;;6.65;6.05;;;-6.20;74.30;;;;;;5170987;28;20213;-75
2021/01/19 04:39:21;;;;;;;7.70;7.00;;;-6.20;78.00;;;;;;5171325;28;20093;-75
2021/01/19 04:41:53;;;;;;;7.45;6.57;;;-6.20;77.90;;;;;;5171330;28;20440;-75
2021/01/19 04:44:27;;;;;;;7.13;6.53;;;-6.10;78.30;;;;;;5171210;28;20476;-75
2021/01/19 04:47:00;;;;;;;7.22;6.53;;;-6.00;78.90;;;;;;5171627;28;20049;-75
2021/01/19 04:49:33;;;;;;;7.70;7.03;;;-6.00;78.40;;;;;;5170344;28;20041;-75
2021/01/19 04:52:05;;;;;;;7.40;6.80;;;-5.90;78.70;;;;;;5172083;28;21411;-76
2021/01/19 04:54:51;;;;;;;7.28;6.68;;;-5.90;78.00;;;;;;5174908;28;20050;-74
2021/01/19 04:57:27;;;;;;;7.10;6.50;;;-5.90;78.30;;;;;;5171593;28;20508;-76
2021/01/19 05:00:14;;;;;;;7.38;6.78;;;-5.90;78.30;;;;;;5174240;28;20042;-76
2021/01/19 05:03:34;;;;;;;7.45;6.75;;;-5.80;78.00;;;;;;5171208;28;20120;-76
2021/01/19 05:06:27;;;;;;;7.95;7.35;;;-5.80;78.10;;;;;;5170881;28;20112;-75
2021/01/19 05:09:06;;;;;;;7.85;7.25;;;-5.80;76.60;;;;;;5171410;28;20509;-75
2021/01/19 05:11:52;;;;;;;7.40;6.80;;;-5.80;76.80;;;;;;5150238;28;20081;-74
2021/01/19 05:14:38;;;;;;;8.57;7.78;;;-5.90;76.30;;;;;;5169104;28;20448;-75
2021/01/19 05:17:10;;;;;;;7.78;7.18;;;-5.90;77.10;;;;;;5165317;28;20097;-75
2021/01/19 05:19:43;;;;;;;7.72;7.10;;;-5.90;76.30;;;;;;5163719;28;20066;-75
2021/01/19 05:22:16;;;;;;;8.10;7.40;;;-6.00;74.70;;;;;;5170096;28;20049;-75
2021/01/19 05:24:48;;;;;;;7.80;7.10;;;-6.00;72.60;;;;;;5173557;28;20046;-75
2021/01/19 05:27:19;;;;;;;8.68;7.88;;;-6.10;71.60;;;;;;5172688;28;20050;-76
2021/01/19 05:30:01;;;;;;;8.30;7.60;;;-6.20;69.10;;;;;;5186247;28;20815;-76
2021/01/19 05:32:43;;;;;;;8.38;7.55;;;-6.30;69.40;;;;;;5171415;28;20038;-74
2021/01/19 05:35:20;;;;;;;8.60;7.68;;;-6.40;69.40;;;;;;5175123;28;20037;-74
2021/01/19 05:37:59;;;;;;;7.78;7.07;;;-6.50;69.60;;;;;;5174286;28;20081;-73
2021/01/19 05:40:31;;;;;;;7.78;7.07;;;-6.50;70.00;;;;;;5173453;28;20042;-75
2021/01/19 05:43:10;;;;;;;6.57;5.97;;;-6.50;71.20;;;;;;5171617;28;20049;-73
2021/01/19 05:45:52;;;;;;;7.15;6.45;;;-6.50;73.90;;;;;;5174438;28;20429;-73
2021/01/19 05:48:38;;;;;;;7.53;6.82;;;-6.50;73.70;;;;;;5159849;28;20046;-74
2021/01/19 05:51:12;;;;;;;6.20;5.60;;;-6.50;71.40;;;;;;5171348;28;20120;-73
2021/01/19 05:53:50;;;;;;;6.95;6.35;;;-6.50;75.50;;;;;;5173983;28;20054;-73
2021/01/19 05:56:22;;;;;;;9.27;8.38;;;-6.50;76.60;;;;;;5171386;28;20073;-74
2021/01/19 05:58:54;;;;;;;19.33;12.55;;;-6.40;73.20;;;;;;5156632;28;20045;-73
2021/01/19 06:01:31;;;;;;;32.53;17.52;;;-6.40;72.20;;;;;;5158019;28;20603;-74
2021/01/19 06:04:03;;;;;;;16.17;11.05;;;-6.40;71.10;;;;;;5173531;28;20038;-73
2021/01/19 06:06:35;;;;;;;16.25;10.70;;;-6.40;70.40;;;;;;5170659;28;20053;-72
2021/01/19 06:09:09;;;;;;;13.98;9.20;;;-6.50;70.20;;;;;;5173083;28;20050;-72
2021/01/19 06:11:53;;;;;;;8.85;7.25;;;-6.50;71.50;;;;;;5160741;28;20444;-74
2021/01/19 06:14:29;;;;;;;44.50;32.60;;;-6.60;73.10;;;;;;5176151;28;20049;-74
2021/01/19 06:17:05;;;;;;;6.10;5.50;;;-6.60;73.30;;;;;;5174009;28;20053;-76
2021/01/19 06:19:38;;;;;;;19.92;15.90;;;-6.60;75.70;;;;;;5176813;28;20045;-75
2021/01/19 06:22:17;;;;;;;6.88;6.28;;;-6.60;75.50;;;;;;5150495;28;20053;-76
2021/01/19 06:24:51;;;;;;;8.15;7.35;;;-6.60;77.50;;;;;;5175006;28;20054;-76
2021/01/19 06:27:22;;;;;;;7.45;6.75;;;-6.50;77.90;;;;;;5176920;28;20073;-77
2021/01/19 06:30:00;;;;;;;7.15;6.20;;;-6.50;77.60;;;;;;5174291;28;20433;-74
2021/01/19 06:32:36;;;;;;;6.25;5.65;;;-6.40;77.50;;;;;;5175883;28;20283;-75
2021/01/19 06:35:19;;;;;;;14.30;10.35;;;-6.40;78.90;;;;;;5180716;28;20049;-75
2021/01/19 06:37:53;;;;;;;6.40;5.80;;;-6.40;72.20;;;;;;5174656;28;20037;-75
2021/01/19 06:40:25;;;;;;;16.50;10.45;;;-6.40;76.40;;;;;;5175459;28;20128;-76
2021/01/19 06:42:59;;;;;;;33.90;22.38;;;-6.40;74.30;;;;;;5176125;28;20034;-74
2021/01/19 06:45:32;;;;;;;35.05;23.33;;;-6.60;69.70;;;;;;5173781;28;20061;-75
2021/01/19 06:48:04;;;;;;;15.25;11.88;;;-6.70;71.20;;;;;;5176084;28;20153;-75
2021/01/19 06:50:38;;;;;;;15.93;11.68;;;-6.70;73.30;;;;;;5161493;28;20045;-74
2021/01/19 06:53:15;;;;;;;63.03;26.33;;;-6.70;71.70;;;;;;5174348;28;20049;-74
2021/01/19 06:56:05;;;;;;;43.92;20.63;;;-6.60;71.90;;;;;;5176163;28;20049;-75
2021/01/19 06:58:48;;;;;;;8.30;7.50;;;-6.60;72.50;;;;;;5175298;28;20092;-73
2021/01/19 07:01:22;;;;;;;8.23;7.53;;;-6.60;77.20;;;;;;5176355;28;20053;-73
2021/01/19 07:04:12;;;;;;;9.70;8.80;;;-6.50;77.80;;;;;;5162071;28;20050;-73
2021/01/19 07:07:04;;;;;;;;;;;-6.50;78.30;;;;;;5176743;28;20038;-73
2021/01/19 07:10:05;;;;;;;7.85;7.05;;;-6.40;78.10;;;;;;5176383;28;20012;-73
2021/01/19 07:13:00;;;;;;;10.25;9.20;;;-6.30;79.80;;;;;;5174035;28;20116;-73
2021/01/19 07:15:57;;;;;;;10.30;9.20;;;-6.30;75.90;;;;;;5173343;28;20468;-74
2021/01/19 07:19:26;;;;;;;13.10;11.77;;;-6.20;75.10;;;;;;5174402;28;20042;-73
2021/01/19 07:22:15;;;;;;;22.58;20.33;;;-6.10;74.10;;;;;;5151254;28;20465;-73
2021/01/19 07:24:49;;;;;;;10.13;9.13;;;-6.10;73.90;;;;;;5151867;28;20062;-73
2021/01/19 07:27:24;;;;;;;9.73;8.82;;;-6.10;77.20;;;;;;5159779;28;20034;-75
2021/01/19 07:29:56;;;;;;;10.50;9.48;;;-6.00;80.10;;;;;;5168459;28;20034;-74
2021/01/19 07:32:30;;;;;;;8.30;7.60;;;-5.80;78.90;;;;;;5173693;28;20061;-75
2021/01/19 07:35:04;;;;;;;9.07;8.27;;;-5.80;81.00;;;;;;5171863;28;20056;-74
2021/01/19 07:37:37;;;;;;;8.77;8.07;;;-5.60;80.70;;;;;;5172843;28;20041;-73
2021/01/19 07:40:21;;;;;;;8.07;7.47;;;-5.50;80.90;;;;;;5175195;28;20567;-74
2021/01/19 07:42:53;;;;;;;13.02;11.63;;;-5.40;80.80;;;;;;5171482;28;20556;-73
2021/01/19 07:45:35;;;;;;;27.92;20.83;;;-5.30;77.90;;;;;;5174716;28;20061;-74
2021/01/19 07:48:09;;;;;;;18.42;15.43;;;-5.30;74.50;;;;;;5175995;28;20108;-73
2021/01/19 07:50:43;;;;;;;21.45;17.65;;;-5.30;75.20;;;;;;5173870;28;20052;-75
2021/01/19 07:53:15;;;;;;;16.98;15.18;;;-5.30;73.70;;;;;;5170947;28;20057;-73
2021/01/19 07:55:48;;;;;;;15.27;13.77;;;-5.20;73.60;;;;;;5175312;28;20464;-74
2021/01/19 07:58:22;;;;;;;9.70;8.73;;;-5.20;74.40;;;;;;5174966;28;20068;-75
2021/01/19 08:00:56;;;;;;;9.98;9.07;;;-5.20;78.50;;;;;;5175103;28;20045;-76
2021/01/19 08:03:29;;;;;;;8.18;7.47;;;-5.10;76.90;;;;;;5175478;28;20464;-73
2021/01/19 08:06:08;;;;;;;11.45;10.25;;;-5.00;80.10;;;;;;5175861;28;20050;-76
2021/01/19 08:08:40;;;;;;;17.75;15.95;;;-4.90;76.20;;;;;;5173970;28;20653;-73
2021/01/19 08:11:19;;;;;;;19.80;17.80;;;-4.80;75.20;;;;;;5176975;28;20037;-74
2021/01/19 08:14:07;;;;;;;13.40;11.00;;;-4.80;72.20;;;;;;5161536;28;20081;-76
2021/01/19 08:16:43;;;;;;;12.05;10.75;;;-4.80;68.70;;;;;;5174454;28;20046;-75
2021/01/19 08:19:16;;;;;;;15.15;13.55;;;-4.80;70.20;;;;;;5138887;28;20464;-76
2021/01/19 08:21:49;;;;;;;13.07;10.90;;;-4.80;70.90;;;;;;5168345;28;20644;-75
2021/01/19 08:24:22;;;;;;;9.13;8.02;;;-4.70;70.90;;;;;;5175483;28;20049;-75
2021/01/19 08:26:56;;;;;;;8.68;7.78;;;-4.70;71.20;;;;;;5175688;28;20540;-75
2021/01/19 08:29:35;;;;;;;8.20;7.38;;;-4.80;71.60;;;;;;5174666;28;20042;-75
2021/01/19 08:32:08;;;;;;;7.47;6.80;;;-4.80;74.60;;;;;;5173759;28;20045;-74
2021/01/19 08:34:42;;;;;;;7.68;7.05;;;-4.80;79.60;;;;;;5175423;28;20053;-75
2021/01/19 08:37:18;;;;;;;8.00;7.30;;;-4.60;80.00;;;;;;5174633;28;20042;-76
2021/01/19 08:39:53;;;;;;;13.98;10.70;;;-4.50;80.50;;;;;;5167958;28;20117;-75
2021/01/19 08:42:40;;;;;;;15.38;11.50;;;-4.40;76.40;;;;;;5172680;28;20506;-73
2021/01/19 08:45:12;;;;;;;13.35;10.18;;;-4.40;72.30;;;;;;5172914;28;20042;-73
2021/01/19 08:47:46;;;;;;;17.52;12.27;;;-4.30;72.50;;;;;;5174384;28;20038;-73
2021/01/19 08:50:18;;;;;;;11.82;10.20;;;-4.30;71.10;;;;;;5163712;28;20046;-74
2021/01/19 08:52:50;;;;;;;10.30;9.20;;;-4.20;72.10;;;;;;5176388;28;20104;-73
2021/01/19 08:55:25;;;;;;;14.65;10.07;;;-4.20;72.90;;;;;;5172790;28;20045;-74
2021/01/19 08:57:58;;;;;;;10.32;8.85;;;-4.10;72.60;;;;;;5177931;28;20869;-74
2021/01/19 09:00:33;;;;;;;8.55;7.75;;;-3.90;73.10;;;;;;5156986;28;20057;-74
2021/01/19 09:03:16;;;;;;;8.85;7.95;;;-3.90;73.80;;;;;;5150239;28;20046;-74
2021/01/19 09:06:08;;;;;;;9.23;8.32;;;-3.80;74.10;;;;;;5174242;28;20394;-73
2021/01/19 09:08:43;;;;;;;9.10;8.25;;;-3.50;73.70;;;;;;5175384;28;20754;-74
2021/01/19 09:11:14;;;;;;;9.63;8.80;;;-3.50;73.70;;;;;;5172230;28;20042;-73
2021/01/19 09:14:02;;;;;;;12.52;10.68;;;-3.30;74.00;;;;;;5173864;28;20041;-75
2021/01/19 09:16:35;;;;;;;10.88;9.77;;;-3.10;72.20;;;;;;5174702;28;20053;-75
2021/01/19 09:19:09;;;;;;;12.10;10.77;;;-2.90;71.40;;;;;;5173942;28;20046;-73
2021/01/19 09:21:41;;;;;;;13.27;11.00;;;-2.70;70.50;;;;;;5172562;28;20054;-73
2021/01/19 09:24:16;;;;;;;14.85;11.32;;;-2.50;70.40;;;;;;5174777;28;20770;-73
2021/01/19 09:27:01;;;;;;;11.48;10.35;;;-2.40;68.80;;;;;;5172145;28;20493;-74
2021/01/19 09:29:33;;;;;;;12.48;11.18;;;-2.30;68.70;;;;;;5172826;28;20042;-76
2021/01/19 09:32:05;;;;;;;12.75;11.35;;;-2.10;69.00;;;;;;5175283;28;20114;-74
2021/01/19 09:34:38;;;;;;;12.25;10.98;;;-1.80;69.40;;;;;;5172886;28;20041;-73
2021/01/19 09:37:11;;;;;;;14.98;12.52;;;-1.60;69.10;;;;;;5172447;28;20042;-76
2021/01/19 09:39:45;;;;;;;30.48;18.90;;;-1.40;68.30;;;;;;5171366;28;20517;-74
2021/01/19 09:42:19;;;;;;;12.93;11.60;;;-1.30;68.10;;;;;;5172327;28;20048;-74
2021/01/19 09:44:51;;;;;;;25.60;19.08;;;-1.20;66.80;;;;;;5173386;28;20034;-74
2021/01/19 09:47:25;;;;;;;14.93;13.27;;;-1.10;67.30;;;;;;5172233;28;20041;-74
2021/01/19 09:49:57;;;;;;;13.07;11.68;;;-0.90;67.40;;;;;;5173851;28;20512;-74
2021/01/19 09:52:30;;;;;;;13.38;11.90;;;-0.80;65.30;;;;;;5172254;28;20890;-75
2021/01/19 09:55:12;;;;;;;15.82;13.77;;;-0.70;66.50;;;;;;5177869;28;20104;-75
2021/01/19 09:57:44;;;;;;;12.85;11.65;;;-0.70;65.90;;;;;;5175316;28;20099;-73
2021/01/19 10:00:31;;;;;;;11.13;10.02;;;-0.70;66.20;;;;;;5175005;28;20034;-74
2021/01/19 10:03:13;;;;;;;13.65;12.23;;;-0.60;67.10;;;;;;5177725;28;20038;-74
2021/01/19 10:05:45;;;;;;;16.52;14.02;;;-0.50;67.40;;;;;;5167479;28;20073;-73
2021/01/19 10:08:22;;;;;;;15.38;12.85;;;-0.40;68.70;;;;;;5177164;28;20045;-73
2021/01/19 10:10:54;;;;;;;12.30;11.10;;;-0.30;68.00;;;;;;5174174;28;20401;-73
2021/01/19 10:13:31;;;;;;;12.55;11.35;;;-0.30;67.30;;;;;;5175614;28;20088;-72
2021/01/19 10:16:26;;;;;;;11.75;10.65;;;-0.20;67.80;;;;;;5176704;28;20212;-75
2021/01/19 10:18:58;;;;;;;11.43;10.32;;;0.00;68.20;;;;;;5175646;28;20034;-76
2021/01/19 10:21:30;;;;;;;13.07;11.25;;;0.10;67.40;;;;;;5175323;28;20096;-72
2021/01/19 10:24:13;;;;;;;11.57;10.48;;;0.20;68.40;;;;;;5176976;28;20042;-75
2021/01/19 10:27:01;;;;;;;14.55;13.15;;;0.40;68.40;;;;;;5175746;28;20046;-73
2021/01/19 10:29:41;;;;;;;13.75;12.45;;;0.50;66.90;;;;;;5175190;28;20121;-74
2021/01/19 10:32:14;;;;;;;12.85;11.57;;;0.40;65.20;;;;;;5176543;28;20047;-72
2021/01/19 10:34:48;;;;;;;12.45;11.35;;;0.50;66.80;;;;;;5175322;28;20053;-73
2021/01/19 10:37:20;;;;;;;12.75;11.65;;;0.60;66.70;;;;;;5174925;28;20872;-74
2021/01/19 10:39:56;;;;;;;12.82;11.57;;;0.70;64.50;;;;;;5172870;28;20486;-74
2021/01/19 10:42:33;;;;;;;14.95;13.38;;;0.80;65.50;;;;;;5175998;28;20100;-73
2021/01/19 10:45:05;;;;;;;17.05;15.25;;;1.00;65.50;;;;;;5177287;28;20064;-74
2021/01/19 10:47:41;;;;;;;15.02;13.48;;;1.10;65.50;;;;;;5171865;28;20048;-74
2021/01/19 10:50:21;;;;;;;13.10;11.90;;;1.30;66.40;;;;;;5175485;28;20065;-76
2021/01/19 10:53:04;;;;;;;12.30;11.20;;;1.50;65.50;;;;;;5173411;28;20049;-76
2021/01/19 10:55:36;;;;;;;12.73;11.63;;;1.70;65.60;;;;;;5174091;28;20050;-75
2021/01/19 10:58:08;;;;;;;13.15;11.95;;;1.90;65.90;;;;;;5175962;28;20050;-72
2021/01/19 11:00:39;;;;;;;11.70;10.70;;;2.00;65.30;;;;;;5175887;28;20050;-74
2021/01/19 11:03:10;;;;;;;12.32;11.23;;;2.10;64.70;;;;;;5176053;28;20100;-75
2021/01/19 11:05:43;;;;;;;12.68;11.65;;;2.10;65.40;;;;;;5175752;28;20038;-75
2021/01/19 11:08:14;;;;;;;12.93;11.82;;;2.30;65.70;;;;;;5174691;28;20045;-74
2021/01/19 11:10:46;;;;;;;16.23;13.25;;;2.40;65.30;;;;;;5170502;28;20038;-75
2021/01/19 11:13:20;;;;;;;12.38;11.20;;;2.60;66.00;;;;;;5173422;28;20064;-74
2021/01/19 11:15:51;;;;;;;12.25;11.25;;;2.70;63.20;;;;;;5139736;28;20060;-76
2021/01/19 11:18:23;;;;;;;12.07;11.07;;;2.60;62.90;;;;;;5174421;28;20056;-73
2021/01/19 11:20:55;;;;;;;12.68;11.45;;;2.70;65.30;;;;;;5170180;28;20696;-73
2021/01/19 11:23:26;;;;;;;12.27;11.27;;;2.80;66.30;;;;;;5174301;28;20620;-73
2021/01/19 11:25:58;;;;;;;12.73;11.73;;;3.00;66.10;;;;;;5173007;28;20046;-74
2021/01/19 11:28:30;;;;;;;12.68;11.68;;;3.10;65.60;;;;;;5172783;28;20044;-76
2021/01/19 11:31:01;;;;;;;21.35;16.77;;;3.30;64.60;;;;;;5174456;28;20456;-74
2021/01/19 11:33:33;;;;;;;22.02;17.10;;;3.40;65.00;;;;;;5175188;28;20042;-75
2021/01/19 11:36:05;;;;;;;18.05;15.50;;;3.50;64.20;;;;;;5176276;28;20121;-76
2021/01/19 11:38:36;;;;;;;17.23;15.63;;;3.60;63.70;;;;;;5170871;28;20054;-73
2021/01/19 11:41:08;;;;;;;16.95;15.27;;;3.70;63.30;;;;;;5170904;28;20541;-74
2021/01/19 11:43:39;;;;;;;17.85;16.05;;;3.80;63.80;;;;;;5171668;28;20129;-75
2021/01/19 11:46:11;;;;;;;18.90;15.57;;;3.90;62.60;;;;;;5162253;28;20053;-74
2021/01/19 11:48:45;;;;;;;16.90;15.13;;;3.90;63.80;;;;;;5173231;28;20065;-76
2021/01/19 11:51:22;;;;;;;17.85;15.95;;;4.00;64.50;;;;;;5175794;28;20429;-75
2021/01/19 11:53:56;;;;;;;16.70;14.88;;;4.10;63.10;;;;;;5176732;28;20061;-76
2021/01/19 11:56:36;;;;;;;19.65;17.55;;;4.20;63.50;;;;;;5173932;28;20045;-76
2021/01/19 11:59:09;;;;;;;16.15;14.45;;;4.30;63.10;;;;;;5166311;28;20188;-74
2021/01/19 12:01:40;;;;;;;13.75;12.45;;;4.30;62.20;;;;;;5149135;28;20041;-75
2021/01/19 12:04:12;;;;;;;15.20;13.70;;;4.30;61.00;;;;;;5169303;28;20042;-75
2021/01/19 12:06:44;;;;;;;16.00;14.40;;;4.30;62.10;;;;;;5172900;28;20669;-76
2021/01/19 12:09:15;;;;;;;14.60;13.27;;;4.20;60.20;;;;;;5173676;28;20161;-77
2021/01/19 12:11:51;;;;;;;15.57;14.02;;;4.10;61.30;;;;;;5173802;28;20057;-77
2021/01/19 12:14:23;;;;;;;14.15;12.75;;;4.10;61.40;;;;;;5177152;28;20046;-77
2021/01/19 12:16:56;;;;;;;12.63;11.52;;;4.00;61.70;;;;;;5174062;28;20049;-73
2021/01/19 12:19:27;;;;;;;14.35;13.05;;;3.90;62.50;;;;;;5175414;28;20046;-73
2021/01/19 12:21:59;;;;;;;14.65;13.45;;;3.90;64.10;;;;;;5177307;28;20046;-74
2021/01/19 12:24:31;;;;;;;14.00;12.80;;;4.00;64.20;;;;;;5175341;28;20519;-74
2021/01/19 12:27:03;;;;;;;13.85;12.65;;;4.20;64.00;;;;;;5176831;28;20042;-75
2021/01/19 12:29:34;;;;;;;14.93;13.50;;;4.10;64.10;;;;;;5177622;28;20049;-74
2021/01/19 12:32:10;;;;;;;13.90;12.50;;;4.00;63.60;;;;;;5156209;28;20073;-73
2021/01/19 12:34:42;;;;;;;14.50;13.07;;;4.00;64.40;;;;;;5178789;28;20042;-73
2021/01/19 12:37:14;;;;;;;16.90;14.60;;;4.00;65.20;;;;;;5174942;28;20097;-76
2021/01/19 12:39:49;;;;;;;14.88;13.45;;;4.20;64.90;;;;;;5174550;28;20119;-76
2021/01/19 12:42:20;;;;;;;13.38;12.18;;;4.30;65.00;;;;;;5155902;28;20045;-73
2021/01/19 12:44:52;;;;;;;13.68;12.48;;;4.20;65.40;;;;;;5172151;28;20441;-75
2021/01/19 12:47:23;;;;;;;11.07;10.18;;;4.30;66.60;;;;;;5171481;28;20092;-74
2021/01/19 12:49:55;;;;;;;12.07;11.10;;;4.20;67.90;;;;;;5152109;28;20076;-76
2021/01/19 12:52:26;;;;;;;12.05;11.15;;;4.20;68.00;;;;;;5173031;28;20057;-77
2021/01/19 12:54:58;;;;;;;12.18;11.27;;;4.30;67.70;;;;;;5171292;28;20135;-78
2021/01/19 12:57:29;;;;;;;11.65;10.75;;;4.40;67.70;;;;;;5171059;28;20049;-79
2021/01/19 13:00:01;;;;;;;11.48;10.68;;;4.30;68.80;;;;;;5153497;28;20492;-79
2021/01/19 13:02:33;;;;;;;11.45;10.65;;;4.50;69.00;;;;;;5171837;28;20054;-80
2021/01/19 13:05:07;;;;;;;12.02;11.13;;;4.60;68.10;;;;;;5189995;28;20773;-79
2021/01/19 13:07:40;;;;;;;14.68;13.38;;;4.80;68.20;;;;;;5171130;28;20580;-75
2021/01/19 13:10:12;;;;;;;29.52;19.63;;;4.80;65.10;;;;;;5170988;28;20037;-76
2021/01/19 13:12:43;;;;;;;14.82;13.52;;;4.80;66.20;;;;;;5171852;28;20046;-75
2021/01/19 13:15:17;;;;;;;13.95;12.80;;;4.70;66.20;;;;;;5171883;28;20049;-78
2021/01/19 13:17:49;;;;;;;13.30;12.20;;;4.80;66.20;;;;;;5168051;28;20049;-76
2021/01/19 13:20:20;;;;;;;12.80;11.80;;;4.70;67.20;;;;;;5155086;28;20045;-75
2021/01/19 13:22:52;;;;;;;13.93;12.82;;;4.80;67.90;;;;;;5173695;28;20113;-77
2021/01/19 13:25:23;;;;;;;13.57;12.48;;;4.80;66.90;;;;;;5171869;28;20132;-77
2021/01/19 13:27:55;;;;;;;12.40;11.50;;;4.90;68.00;;;;;;5172384;28;20041;-79